Time;durP1;ratioP1;P1;durP2;ratioP2;P2;SDS_P1;SDS_P2;PMS_P1;PMS_P2;Temp;Humidity;BMP_temperature;BMP_pressure;BME280_temperature;BME280_humidity;BME280_pressure;Samples;Min_cycle;Max_cycle;Signal;HPM_P1;HPM_P2
2022/10/25 00:01:24;;;;;;;10.82;7.25;;;;;;;21.43;62.70;101173.72;5078728;28;20040;-81
2022/10/25 00:03:52;;;;;;;14.85;7.95;;;;;;;21.44;62.50;101169.19;5095605;28;20032;-82
2022/10/25 00:06:20;;;;;;;12.65;7.28;;;;;;;21.43;62.45;101160.25;5096689;28;20483;-82
2022/10/25 00:08:48;;;;;;;9.65;7.30;;;;;;;21.43;62.37;101151.28;5095808;28;20381;-82
2022/10/25 00:11:19;;;;;;;8.55;7.72;;;;;;;21.43;62.30;101162.06;5095663;28;20051;-82
2022/10/25 00:13:48;;;;;;;8.82;7.72;;;;;;;21.43;62.23;101157.56;5096394;28;20055;-81
2022/10/25 00:16:20;;;;;;;7.97;7.07;;;;;;;21.42;62.38;101155.84;5077578;28;20055;-81
2022/10/25 00:18:48;;;;;;;10.30;7.68;;;;;;;21.43;62.61;101165.63;5096750;28;20464;-83
2022/10/25 00:21:15;;;;;;;10.35;8.27;;;;;;;21.42;62.63;101158.53;5095815;28;20056;-83
2022/10/25 00:23:42;;;;;;;9.77;7.13;;;;;;;21.42;62.75;101150.44;5096177;28;20044;-83
2022/10/25 00:26:11;;;;;;;9.32;7.68;;;;;;;21.43;62.83;101145.91;5096167;28;20055;-84
2022/10/25 00:28:39;;;;;;;8.98;7.82;;;;;;;21.43;62.61;101148.59;5077388;28;20071;-84
2022/10/25 00:31:11;;;;;;;8.55;7.28;;;;;;;21.42;62.53;101141.50;5095292;28;20487;-84
2022/10/25 00:33:41;;;;;;;10.07;7.10;;;;;;;21.42;62.32;101136.13;5096504;28;20040;-83
2022/10/25 00:36:17;;;;;;;11.43;7.43;;;;;;;21.42;62.30;101144.22;5096493;28;20051;-81
2022/10/25 00:38:45;;;;;;;12.07;7.00;;;;;;;21.43;62.27;101143.22;5096131;28;20048;-82
2022/10/25 00:41:18;;;;;;;9.88;7.82;;;;;;;21.42;62.19;101141.50;5096669;28;20048;-81
2022/10/25 00:43:53;;;;;;;8.52;7.10;;;;;;;21.41;62.20;101137.97;5096448;28;20044;-81
2022/10/25 00:46:26;;;;;;;11.35;7.47;;;;;;;21.42;61.96;101130.75;5095542;28;20556;-82
2022/10/25 00:49:03;;;;;;;8.80;7.35;;;;;;;21.41;61.92;101137.13;5095583;28;20055;-82
2022/10/25 00:51:39;;;;;;;7.63;6.50;;;;;;;21.41;61.74;101129.03;5095364;28;20052;-81
2022/10/25 00:54:09;;;;;;;11.40;6.65;;;;;;;21.40;61.92;101124.66;5095752;28;20391;-81
2022/10/25 00:56:41;;;;;;;9.25;6.88;;;;;;;21.41;61.89;101120.97;5095773;28;20036;-82
2022/10/25 00:59:13;;;;;;;10.23;7.25;;;;;;;21.41;61.89;101124.50;5095868;28;20060;-82
2022/10/25 01:01:41;;;;;;;6.93;6.22;;;;;;;21.40;61.86;101119.28;5095455;28;20373;-81
2022/10/25 01:04:14;;;;;;;12.30;6.57;;;;;;;21.40;61.64;101112.03;5095231;28;20040;-82
2022/10/25 01:06:46;;;;;;;9.40;6.60;;;;;;;21.40;61.70;101121.97;5077660;28;20044;-83
2022/10/25 01:09:17;;;;;;;11.60;7.13;;;;;;;21.40;61.69;101114.72;5095142;28;20056;-83
2022/10/25 01:11:45;;;;;;;11.18;7.30;;;;;;;21.40;61.78;101127.34;5096045;28;20399;-83
2022/10/25 01:14:15;;;;;;;7.32;6.63;;;;;;;21.40;61.78;101127.34;5096202;28;20033;-82
2022/10/25 01:16:45;;;;;;;7.95;6.45;;;;;;;21.40;61.78;101121.97;5095505;28;20032;-82
2022/10/25 01:19:43;;;;;;;8.57;6.35;;;;;;;21.40;61.94;101116.56;5095773;28;20055;-82
2022/10/25 01:22:17;;;;;;;12.05;6.65;;;;;;;21.40;61.88;101113.88;5077545;28;20408;-82
2022/10/25 01:25:21;;;;;;;10.80;7.10;;;;;;;21.40;62.06;101121.97;5095505;28;20040;-82
2022/10/25 01:27:56;;;;;;;8.13;6.90;;;;;;;21.39;62.12;101118.44;5095721;28;20048;-83
2022/10/25 01:30:30;;;;;;;8.68;7.60;;;;;;;21.39;62.14;101107.66;5076652;28;20404;-83
2022/10/25 01:33:12;;;;;;;11.27;7.22;;;;;;;21.39;62.31;101107.66;5096515;28;20036;-84
2022/10/25 01:35:50;;;;;;;10.30;7.03;;;;;;;21.40;62.31;101114.72;5099741;28;20052;-83
2022/10/25 01:38:30;;;;;;;7.72;6.72;;;;;;;21.39;62.18;101114.84;5099623;28;20387;-83
2022/10/25 01:41:18;;;;;;;7.00;6.25;;;;;;;21.38;62.20;101108.63;5099217;28;20051;-83
2022/10/25 01:44:10;;;;;;;10.85;7.07;;;;;;;21.39;62.26;101129.19;5098748;28;20059;-82
2022/10/25 01:46:53;;;;;;;10.82;6.47;;;;;;;21.38;62.32;101118.53;5099237;28;20392;-82
2022/10/25 01:49:41;;;;;;;9.18;7.43;;;;;;;21.39;62.32;101114.84;5099414;28;20052;-82
2022/10/25 01:52:09;;;;;;;10.25;6.88;;;;;;;21.38;62.22;101119.38;5098736;28;20050;-82
2022/10/25 01:54:36;;;;;;;8.90;5.78;;;;;;;21.39;62.39;101109.47;5098691;28;20048;-82
2022/10/25 01:57:25;;;;;;;10.82;7.05;;;;;;;21.40;62.31;101108.50;5080021;28;20048;-82
2022/10/25 02:00:05;;;;;;;7.93;7.07;;;;;;;21.38;62.30;101108.63;5098561;28;20052;-83
2022/10/25 02:03:02;;;;;;;10.23;6.82;;;;;;;21.39;62.43;101114.84;5105304;28;20044;-83
2022/10/25 02:05:45;;;;;;;8.70;6.63;;;;;;;21.38;62.36;101118.53;5080876;28;20044;-83
2022/10/25 02:08:37;;;;;;;8.07;6.53;;;;;;;21.37;62.38;101111.47;5098779;28;20063;-83
2022/10/25 02:11:26;;;;;;;12.35;6.68;;;;;;;21.38;62.51;101111.31;5098918;28;20044;-83
2022/10/25 02:13:59;;;;;;;7.57;6.63;;;;;;;21.38;62.40;101114.00;5098150;28;20044;-82
2022/10/25 02:16:50;;;;;;;8.13;6.35;;;;;;;21.38;62.52;101107.78;5098533;28;20071;-82
2022/10/25 02:19:26;;;;;;;10.40;7.18;;;;;;;21.37;62.55;101109.63;5079901;28;20048;-82
2022/10/25 02:21:55;;;;;;;8.18;6.00;;;;;;;21.38;62.43;101118.53;5099397;28;20048;-83
2022/10/25 02:24:25;;;;;;;9.63;6.68;;;;;;;21.38;62.54;101107.78;5098039;28;20040;-83
2022/10/25 02:26:54;;;;;;;8.35;6.75;;;;;;;21.37;62.48;101111.47;5098514;28;20044;-83
2022/10/25 02:29:24;;;;;;;7.85;7.00;;;;;;;21.38;62.44;101123.94;5098567;28;20048;-84
2022/10/25 02:31:52;;;;;;;10.25;6.30;;;;;;;21.37;62.37;101111.47;5099172;28;20062;-84
2022/10/25 02:34:20;;;;;;;9.32;6.60;;;;;;;21.37;62.36;101122.22;5098473;28;20051;-82
2022/10/25 02:36:48;;;;;;;8.65;5.82;;;;;;;21.37;62.39;101119.53;5099032;28;20044;-82
2022/10/25 02:39:17;;;;;;;8.38;6.60;;;;;;;21.37;62.46;101127.63;5097884;28;20476;-82
2022/10/25 02:41:45;;;;;;;11.55;6.75;;;;;;;21.36;62.49;101125.94;5097787;28;20047;-83
2022/10/25 02:44:12;;;;;;;6.68;5.95;;;;;;;21.37;62.57;101125.78;5097188;28;20040;-83
2022/10/25 02:46:39;;;;;;;7.85;6.65;;;;;;;21.37;62.52;101131.16;5079130;28;20059;-83
2022/10/25 02:49:07;;;;;;;11.05;6.75;;;;;;;21.37;62.44;101131.16;5097594;28;20047;-83
2022/10/25 02:51:34;;;;;;;8.98;6.57;;;;;;;21.36;62.45;101132.16;5097762;28;20047;-82
2022/10/25 02:54:01;;;;;;;8.75;6.25;;;;;;;21.36;62.42;101123.22;5097606;28;20044;-82
2022/10/25 02:56:29;;;;;;;8.35;6.47;;;;;;;21.38;62.43;101132.00;5079331;28;20048;-82
2022/10/25 02:58:57;;;;;;;8.85;5.88;;;;;;;21.38;62.27;101126.63;5097475;28;20044;-82
2022/10/25 03:01:24;;;;;;;11.95;7.03;;;;;;;21.35;62.41;101110.72;5097582;28;20101;-82
2022/10/25 03:03:51;;;;;;;13.57;6.50;;;;;;;;;;5097833;28;20044;-82
2022/10/25 03:06:19;;;;;;;9.75;6.32;;;;;;;21.37;62.26;101127.63;5097300;28;20051;-82
2022/10/25 03:08:46;;;;;;;10.00;6.18;;;;;;;21.37;62.21;101127.63;5097172;28;20407;-83
2022/10/25 03:11:15;;;;;;;11.65;6.50;;;;;;;21.34;62.31;101117.97;5097520;28;20051;-83
2022/10/25 03:13:43;;;;;;;11.43;6.82;;;;;;;21.34;62.34;101130.59;5097874;28;20040;-82
2022/10/25 03:16:10;;;;;;;6.45;5.63;;;;;;;;;;5097717;28;20048;-82
2022/10/25 03:18:37;;;;;;;10.05;6.35;;;;;;;21.36;62.33;101134.00;5097116;28;20498;-82
2022/10/25 03:21:05;;;;;;;10.13;6.88;;;;;;;21.35;62.24;101124.19;5097596;28;20518;-82
2022/10/25 03:23:33;;;;;;;8.57;6.57;;;;;;;;;;5097341;28;20044;-82
2022/10/25 03:26:00;;;;;;;9.02;6.50;;;;;;;21.36;62.28;101136.69;5078774;28;20048;-82
2022/10/25 03:28:29;;;;;;;11.40;6.25;;;;;;;21.36;62.40;101136.69;5096996;28;20067;-82
2022/10/25 03:30:58;;;;;;;8.13;6.72;;;;;;;21.34;62.25;101141.34;5096716;28;20048;-83
2022/10/25 03:33:26;;;;;;;11.27;6.15;;;;;;;21.33;62.27;101134.28;5097578;28;20361;-82
2022/10/25 03:35:54;;;;;;;9.13;5.90;;;;;;;21.36;62.23;101139.38;5097285;28;20040;-82
2022/10/25 03:38:21;;;;;;;8.48;6.32;;;;;;;;;;5097318;28;20117;-82
2022/10/25 03:40:48;;;;;;;10.70;6.47;;;;;;;21.34;62.20;101127.88;5096733;28;20048;-82
2022/10/25 03:43:16;;;;;;;8.20;6.22;;;;;;;21.33;62.22;101140.50;5079429;28;20051;-82
2022/10/25 03:45:43;;;;;;;10.48;6.43;;;;;;;21.33;62.26;101155.81;5096768;28;20391;-83
2022/10/25 03:48:11;;;;;;;7.35;5.82;;;;;;;21.36;62.25;101153.69;5096410;28;20044;-82
2022/10/25 03:50:38;;;;;;;8.13;6.65;;;;;;;21.34;62.16;101157.50;5096169;28;20051;-83
2022/10/25 03:53:06;;;;;;;8.88;6.65;;;;;;;21.34;62.19;101160.22;5096983;28;20051;-83
2022/10/25 03:55:38;;;;;;;9.73;6.32;;;;;;;21.33;62.17;101153.13;5079172;28;20028;-81
2022/10/25 03:58:06;;;;;;;8.50;5.95;;;;;;;21.33;62.28;101148.59;5096961;28;20044;-82
2022/10/25 04:00:33;;;;;;;9.07;6.20;;;;;;;21.34;62.23;101154.81;5096251;28;20048;-82
2022/10/25 04:03:01;;;;;;;8.65;6.30;;;;;;;21.32;62.23;101151.41;5078990;28;20079;-83
2022/10/25 04:05:30;;;;;;;9.52;6.57;;;;;;;21.32;62.19;101156.78;5078155;28;20047;-83
2022/10/25 04:07:57;;;;;;;8.13;6.38;;;;;;;21.33;62.18;101158.50;5096659;28;20079;-83
2022/10/25 04:10:25;;;;;;;7.00;6.22;;;;;;;21.34;62.21;101165.59;5095983;28;20055;-83
2022/10/25 04:12:53;;;;;;;7.63;6.28;;;;;;;21.33;62.13;101166.59;5078340;28;20051;-82
2022/10/25 04:15:22;;;;;;;9.60;6.72;;;;;;;21.32;62.07;101162.16;5096018;28;20044;-82
2022/10/25 04:17:51;;;;;;;9.68;6.75;;;;;;;21.32;62.09;101176.50;5096453;28;20070;-82
2022/10/25 04:20:19;;;;;;;9.90;6.80;;;;;;;21.33;62.08;101175.50;5077159;28;20048;-83
2022/10/25 04:22:53;;;;;;;9.20;6.45;;;;;;;21.32;61.90;101171.13;5096072;28;20051;-83
2022/10/25 04:25:20;;;;;;;9.88;7.38;;;;;;;21.32;61.81;101171.13;5096185;28;20055;-84
2022/10/25 04:27:48;;;;;;;12.77;6.53;;;;;;;21.32;61.87;101162.16;5095751;28;20403;-84
2022/10/25 04:30:15;;;;;;;6.95;5.57;;;;;;;21.31;61.98;101161.31;5096322;28;20044;-84
2022/10/25 04:32:43;;;;;;;8.90;6.28;;;;;;;21.31;61.83;101176.59;5077002;28;20542;-83
2022/10/25 04:35:11;;;;;;;7.93;6.82;;;;;;;21.32;61.81;101183.72;5095634;28;20387;-83
2022/10/25 04:37:38;;;;;;;8.52;6.80;;;;;;;21.31;61.72;101190.94;5095626;28;20050;-83
2022/10/25 04:40:07;;;;;;;9.35;6.72;;;;;;;21.31;61.78;101195.44;5077597;28;20060;-83
2022/10/25 04:42:34;;;;;;;8.63;6.30;;;;;;;21.31;61.78;101192.75;5096142;28;20044;-83
2022/10/25 04:45:02;;;;;;;9.70;6.38;;;;;;;21.30;61.71;101191.91;5076947;28;20530;-80
2022/10/25 04:47:31;;;;;;;9.60;6.93;;;;;;;21.30;61.78;101188.38;5095347;28;20048;-81
2022/10/25 04:49:58;;;;;;;6.60;5.90;;;;;;;21.29;61.93;101195.59;5095922;28;20391;-81
2022/10/25 04:52:29;;;;;;;7.95;6.55;;;;;;;21.30;61.96;101194.59;5094926;28;20506;-81
2022/10/25 04:54:57;;;;;;;10.93;6.93;;;;;;;21.31;61.94;101206.22;5095794;28;20048;-81
2022/10/25 04:57:24;;;;;;;9.25;7.28;;;;;;;21.31;61.93;101200.84;5095345;28;20513;-80
2022/10/25 04:59:52;;;;;;;9.48;6.13;;;;;;;21.30;61.96;101208.06;5060828;28;20056;-81
2022/10/25 05:02:19;;;;;;;10.48;7.18;;;;;;;21.30;61.87;101199.13;5095683;28;20479;-81
2022/10/25 05:04:46;;;;;;;7.88;6.45;;;;;;;21.30;61.87;101193.75;5095345;28;20055;-81
2022/10/25 05:07:18;;;;;;;8.95;6.70;;;;;;;21.30;61.89;101208.06;5095365;28;20052;-81
2022/10/25 05:09:45;;;;;;;8.88;7.00;;;;;;;21.30;61.84;101217.97;5100761;28;20467;-81
2022/10/25 05:12:17;;;;;;;10.70;6.82;;;;;;;21.31;61.87;101215.19;5100498;28;20048;-81
2022/10/25 05:14:44;;;;;;;8.57;6.13;;;;;;;21.30;61.91;101231.44;5099499;28;20389;-81
2022/10/25 05:17:11;;;;;;;7.50;6.10;;;;;;;21.30;61.89;101228.75;5081281;28;20059;-81
2022/10/25 05:19:39;;;;;;;10.38;6.13;;;;;;;21.31;61.91;101238.53;5100263;28;20070;-81
2022/10/25 05:22:06;;;;;;;8.52;6.97;;;;;;;21.31;61.98;101249.31;5100124;28;20059;-82
2022/10/25 05:24:34;;;;;;;8.07;6.20;;;;;;;21.30;61.95;101247.59;5100154;28;20044;-82
2022/10/25 05:27:03;;;;;;;9.85;6.25;;;;;;;21.31;61.89;101257.38;5099709;28;20396;-81
2022/10/25 05:29:30;;;;;;;7.95;7.03;;;;;;;21.31;62.09;101263.66;5100038;28;20059;-82
2022/10/25 05:31:58;;;;;;;9.57;6.63;;;;;;;21.30;61.92;101271.84;5100697;28;20044;-82
2022/10/25 05:34:26;;;;;;;8.90;6.53;;;;;;;21.30;61.96;101278.06;5082778;28;20048;-83
2022/10/25 05:36:54;;;;;;;8.23;6.32;;;;;;;21.30;62.05;101283.47;5099575;28;20052;-83
2022/10/25 05:39:21;;;;;;;8.10;6.72;;;;;;;21.29;62.08;101280.91;5099607;28;20055;-82
2022/10/25 05:41:48;;;;;;;7.75;6.05;;;;;;;21.29;62.02;101273.69;5099404;28;20048;-82
2022/10/25 05:44:16;;;;;;;8.50;6.85;;;;;;;21.30;62.22;101288.00;5098872;28;20044;-82
2022/10/25 05:46:44;;;;;;;11.52;6.70;;;;;;;21.30;62.05;101288.00;5099135;28;20041;-82
2022/10/25 05:49:12;;;;;;;9.25;7.45;;;;;;;21.30;62.10;101279.94;5099007;28;20044;-82
2022/10/25 05:51:39;;;;;;;8.75;6.85;;;;;;;21.30;62.06;101279.94;5099679;28;20044;-81
2022/10/25 05:54:10;;;;;;;9.60;7.30;;;;;;;21.29;62.11;101287.16;5099695;28;20040;-82
2022/10/25 05:56:38;;;;;;;8.77;7.13;;;;;;;21.31;62.31;101297.78;5099018;28;20044;-81
2022/10/25 05:59:08;;;;;;;11.52;6.32;;;;;;;21.30;62.17;101290.69;5099023;28;20036;-82
2022/10/25 06:01:38;;;;;;;7.13;6.38;;;;;;;21.29;61.95;101286.31;5099416;28;20471;-82
2022/10/25 06:04:06;;;;;;;8.68;5.90;;;;;;;21.29;62.07;101280.91;5099088;28;20048;-82
2022/10/25 06:06:35;;;;;;;8.55;6.55;;;;;;;21.30;62.30;101277.22;5081135;28;20040;-83
2022/10/25 06:09:04;;;;;;;9.57;6.88;;;;;;;21.31;62.18;101276.25;5080435;28;20048;-82
2022/10/25 06:11:31;;;;;;;6.78;6.15;;;;;;;21.31;62.28;101289.69;5080968;28;20055;-82
2022/10/25 06:13:59;;;;;;;7.25;6.50;;;;;;;21.29;62.25;101289.00;5097843;28;20040;-81
2022/10/25 06:16:26;;;;;;;8.07;6.32;;;;;;;21.29;62.33;101297.94;5098073;28;20040;-83
2022/10/25 06:18:54;;;;;;;8.25;6.53;;;;;;;21.28;62.25;101301.63;5097413;28;20055;-81
2022/10/25 06:21:24;;;;;;;9.45;6.88;;;;;;;21.30;62.30;101309.53;5098094;28;20044;-82
2022/10/25 06:23:52;;;;;;;7.53;6.32;;;;;;;21.30;62.36;101323.00;5098185;28;20391;-81
2022/10/25 06:26:22;;;;;;;7.93;6.40;;;;;;;21.29;62.35;101318.63;5098493;28;20044;-81
2022/10/25 06:28:55;;;;;;;7.75;6.53;;;;;;;21.29;62.38;101324.84;5080238;28;20048;-81
2022/10/25 06:31:23;;;;;;;7.40;6.32;;;;;;;21.29;62.43;101337.47;5097564;28;20051;-81
2022/10/25 06:33:51;;;;;;;9.32;7.18;;;;;;;21.30;62.45;101342.72;5098002;28;20047;-81
2022/10/25 06:36:20;;;;;;;9.70;6.85;;;;;;;21.29;62.54;101346.41;5097516;28;20040;-81
2022/10/25 06:38:49;;;;;;;10.23;7.20;;;;;;;21.31;62.58;101351.66;5078865;28;20491;-81
2022/10/25 06:41:19;;;;;;;7.85;6.38;;;;;;;21.30;62.69;101347.25;5098379;28;20051;-82
2022/10/25 06:43:47;;;;;;;9.75;7.15;;;;;;;21.29;62.58;101357.19;5098509;28;20475;-80
2022/10/25 06:46:23;;;;;;;16.52;10.50;;;;;;;21.29;61.96;101375.19;5096698;28;20413;-78
2022/10/25 06:48:53;;;;;;;15.40;11.68;;;;;;;21.27;61.69;101378.00;5097084;28;20383;-78
2022/10/25 06:51:22;;;;;;;17.30;12.23;;;;;;;21.24;61.32;101376.41;5097032;28;20051;-80
2022/10/25 06:53:57;;;;;;;18.20;13.63;;;;;;;21.23;61.46;101369.34;5107867;28;20384;-77
2022/10/25 06:56:26;;;;;;;20.70;13.68;;;;;;;21.20;61.32;101374.97;5116383;28;20054;-77
2022/10/25 06:58:54;;;;;;;16.63;12.75;;;;;;;21.17;61.28;101380.63;5117071;28;20062;-78
2022/10/25 07:01:23;;;;;;;21.42;13.68;;;;;;;21.17;61.43;101383.31;5116659;28;20048;-77
2022/10/25 07:03:52;;;;;;;16.10;13.40;;;;;;;21.15;61.66;101390.69;5116129;28;20044;-79
2022/10/25 07:06:25;;;;;;;18.08;13.40;;;;;;;21.14;61.77;101391.63;5081149;28;20074;-79
2022/10/25 07:09:00;;;;;;;22.25;14.25;;;;;;;21.15;61.82;101393.38;5117235;28;20055;-79
2022/10/25 07:11:29;;;;;;;21.65;13.27;;;;;;;21.15;61.97;101396.06;5099013;28;20044;-79
2022/10/25 07:13:58;;;;;;;18.15;12.32;;;;;;;21.16;62.23;101408.53;5098144;28;20048;-80
2022/10/25 07:16:26;;;;;;;19.73;13.75;;;;;;;21.16;61.89;101413.91;5116558;28;20051;-77
2022/10/25 07:19:02;;;;;;;20.63;13.63;;;;;;;21.17;61.79;101425.53;5097701;28;20059;-79
2022/10/25 07:21:31;;;;;;;19.08;13.65;;;;;;;21.17;61.86;101425.53;5117314;28;20044;-78
2022/10/25 07:23:58;;;;;;;21.58;13.50;;;;;;;21.18;61.86;101421.84;5117350;28;20043;-78
2022/10/25 07:26:27;;;;;;;22.08;13.98;;;;;;;21.18;61.93;101422.69;5116509;28;20051;-77
2022/10/25 07:28:56;;;;;;;23.77;15.02;;;;;;;21.18;61.85;101422.69;5116293;28;20052;-79
2022/10/25 07:31:36;;;;;;;21.67;14.98;;;;;;;21.19;61.77;101431.66;5116282;28;20403;-80
2022/10/25 07:34:04;;;;;;;21.33;15.25;;;;;;;21.18;61.82;101425.41;5117368;28;20407;-80
2022/10/25 07:36:32;;;;;;;22.98;15.02;;;;;;;21.19;61.94;101420.91;5117335;28;20039;-80
2022/10/25 07:38:59;;;;;;;20.52;13.52;;;;;;;21.20;61.80;101433.38;5117345;28;20048;-82
2022/10/25 07:41:27;;;;;;;21.70;15.88;;;;;;;21.20;61.92;101438.75;5117111;28;20050;-83
2022/10/25 07:43:54;;;;;;;22.33;17.15;;;;;;;21.18;61.88;101452.31;5116822;28;20043;-87
2022/10/25 07:46:22;;;;;;;23.13;15.85;;;;;;;21.20;61.99;101455.75;5116976;28;20047;-83
2022/10/25 07:48:51;;;;;;;17.73;14.10;;;;;;;21.20;61.99;101463.84;5116982;28;20050;-82
2022/10/25 07:51:19;;;;;;;20.02;14.77;;;;;;;21.21;61.98;101462.84;5116765;28;20047;-87
2022/10/25 07:53:46;;;;;;;21.70;16.42;;;;;;;21.23;62.09;101465.44;5117416;28;20048;-90
2022/10/25 07:56:18;;;;;;;25.42;16.23;;;;;;;21.22;62.30;101453.78;5098931;28;20043;-84
2022/10/25 07:58:51;;;;;;;20.23;15.65;;;;;;;21.22;62.19;101451.09;5117115;28;20047;-81
2022/10/25 08:01:21;;;;;;;24.35;17.30;;;;;;;21.24;62.32;101465.28;5116320;28;20058;-80
2022/10/25 08:03:49;;;;;;;27.60;17.77;;;;;;;21.24;62.43;101457.22;5116084;28;20062;-82
2022/10/25 08:06:17;;;;;;;24.38;16.58;;;;;;;21.24;62.46;101445.59;5116934;28;20040;-80
2022/10/25 08:08:45;;;;;;;27.95;17.75;;;;;;;21.24;62.49;101441.06;5117414;28;20066;-81
2022/10/25 08:11:12;;;;;;;25.42;18.58;;;;;;;21.25;62.38;101444.59;5116760;28;20058;-84
2022/10/25 08:13:40;;;;;;;26.08;17.95;;;;;;;21.27;62.55;101452.53;5115566;28;20419;-80
2022/10/25 08:16:07;;;;;;;22.02;16.45;;;;;;;21.28;62.44;101462.34;5116111;28;20044;-84
2022/10/25 08:18:59;;;;;;;28.67;16.58;;;;;;;21.29;62.62;101459.50;5117030;28;20050;-80
2022/10/25 08:21:26;;;;;;;25.52;17.75;;;;;;;21.30;62.75;101457.66;5106367;28;20056;-80
2022/10/25 08:23:54;;;;;;;26.77;18.90;;;;;;;21.30;63.36;101458.50;5116320;28;20506;-83
2022/10/25 08:26:25;;;;;;;24.23;19.73;;;;;;;21.31;63.63;101462.06;5098362;28;20380;-82
2022/10/25 08:28:52;;;;;;;26.33;18.02;;;;;;;21.30;63.76;101466.59;5116263;28;20043;-80
2022/10/25 08:31:21;;;;;;;27.70;19.98;;;;;;;21.32;63.83;101469.19;5115896;28;20054;-82
2022/10/25 08:33:48;;;;;;;27.65;19.45;;;;;;;21.32;64.32;101466.50;5116421;28;20501;-81
2022/10/25 08:36:16;;;;;;;26.75;19.90;;;;;;;21.32;64.21;101470.06;5116350;28;20051;-82
2022/10/25 08:38:43;;;;;;;30.90;21.52;;;;;;;21.31;64.54;101457.56;5116523;28;20048;-83
2022/10/25 08:41:21;;;;;;;26.88;20.65;;;;;;;21.32;64.82;101459.28;5116200;28;20043;-80
2022/10/25 08:44:10;;;;;;;32.70;19.92;;;;;;;21.32;64.73;101461.09;5116539;28;20046;-81
2022/10/25 08:46:56;;;;;;;30.65;21.83;;;;;;;21.32;64.90;101477.25;5081428;28;20055;-80
2022/10/25 08:49:29;;;;;;;26.60;20.58;;;;;;;21.33;65.17;101487.06;5096740;28;20063;-83
2022/10/25 08:51:58;;;;;;;29.05;20.60;;;;;;;21.32;65.28;101475.44;5115985;28;20052;-82
2022/10/25 08:54:42;;;;;;;32.63;22.55;;;;;;;21.33;65.51;101482.53;5115981;28;20054;-81
2022/10/25 08:57:22;;;;;;;33.47;22.88;;;;;;;21.33;65.47;101481.69;5115893;28;20066;-81
2022/10/25 09:00:13;;;;;;;33.85;23.65;;;;;;;21.33;65.81;101479.84;5115353;28;20039;-81
2022/10/25 09:02:49;;;;;;;30.70;23.63;;;;;;;21.33;66.12;101479.00;5115970;28;20048;-81
2022/10/25 09:05:35;;;;;;;27.52;21.95;;;;;;;21.33;65.84;101482.53;5115711;28;20347;-79
2022/10/25 09:08:41;;;;;;;29.77;21.98;;;;;;;21.34;66.04;101480.69;5115653;28;20506;-82
2022/10/25 09:11:36;;;;;;;29.25;22.60;;;;;;;21.32;65.86;101475.44;5013436;28;20473;-79
2022/10/25 09:14:32;;;;;;;31.65;22.73;;;;;;;21.32;65.97;101475.44;5012592;28;20053;-80
2022/10/25 09:17:19;;;;;;;34.38;24.23;;;;;;;21.33;66.27;101479.84;5012622;28;20057;-81
2022/10/25 09:20:06;;;;;;;32.50;23.45;;;;;;;21.36;66.09;101484.13;5012899;28;20058;-82
2022/10/25 09:22:49;;;;;;;34.67;23.25;;;;;;;21.36;66.30;101484.13;4997027;28;20058;-80
2022/10/25 09:25:16;;;;;;;28.33;21.92;;;;;;;;;;5012755;28;20057;-79
2022/10/25 09:27:59;;;;;;;34.17;25.15;;;;;;;21.36;66.42;101487.69;5012416;28;20441;-79
2022/10/25 09:30:40;;;;;;;31.17;23.42;;;;;;;21.37;66.55;101485.84;4995110;28;20054;-81
2022/10/25 09:33:14;;;;;;;31.70;22.23;;;;;;;21.36;66.43;101476.06;5011476;28;20056;-83
2022/10/25 09:35:51;;;;;;;28.75;21.52;;;;;;;21.38;66.28;101492.91;5013421;28;20066;-79
2022/10/25 09:38:38;;;;;;;24.80;20.35;;;;;;;21.38;66.30;101485.69;5013791;28;20046;-80
2022/10/25 09:41:38;;;;;;;27.48;21.48;;;;;;;21.38;66.22;101496.47;5013051;28;20453;-80
2022/10/25 09:44:34;;;;;;;25.65;20.92;;;;;;;21.40;66.24;101497.19;4995800;28;20060;-79
2022/10/25 09:47:10;;;;;;;26.30;20.88;;;;;;;21.41;66.29;101490.81;5018516;28;20057;-82
2022/10/25 09:49:55;;;;;;;32.05;21.70;;;;;;;21.40;66.33;101489.13;5096547;28;20046;-80
2022/10/25 09:52:46;;;;;;;26.05;20.08;;;;;;;21.40;66.29;101493.66;5114984;28;20379;-79
2022/10/25 09:55:30;;;;;;;31.27;21.30;;;;;;;21.42;66.52;101486.28;5118155;28;20061;-81
2022/10/25 09:57:57;;;;;;;;;;;;;;;21.41;66.90;101489.97;5139095;27;20043;-84
2022/10/25 10:00:24;;;;;;;32.33;22.10;;;;;;;21.43;68.05;101493.38;5118391;28;19919;-85
2022/10/25 10:02:52;;;;;;;32.22;22.45;;;;;;;21.45;70.54;101504.91;5100160;28;20075;-80
2022/10/25 10:05:21;;;;;;;31.92;20.67;;;;;;;21.44;71.36;101506.72;5118339;28;20043;-80
2022/10/25 10:07:49;;;;;;;28.70;22.08;;;;;;;21.44;71.10;101506.72;5119388;28;20059;-87
2022/10/25 10:10:24;;;;;;;26.48;20.35;;;;;;;21.43;72.22;101499.66;5120977;28;20055;-90
2022/10/25 10:13:05;;;;;;;29.27;21.60;;;;;;;21.44;72.28;101506.72;5096803;28;20051;-80
2022/10/25 10:15:41;;;;;;;30.67;21.77;;;;;;;21.44;71.83;101500.50;5118469;28;20052;-82
2022/10/25 10:18:23;;;;;;;25.95;20.55;;;;;;;21.42;71.72;101497.91;5119222;28;20051;-82
2022/10/25 10:20:57;;;;;;;23.40;20.77;;;;;;;21.43;71.56;101502.34;5118839;28;20050;-86
2022/10/25 10:23:27;;;;;;;23.27;18.95;;;;;;;21.42;71.72;101507.84;5118194;28;20047;-79
2022/10/25 10:25:55;;;;;;;27.98;20.23;;;;;;;21.42;71.21;101497.06;5117752;28;20050;-80
2022/10/25 10:28:22;;;;;;;29.35;20.25;;;;;;;21.42;71.50;101500.59;5118186;28;20047;-80
2022/10/25 10:30:55;;;;;;;27.17;19.23;;;;;;;21.43;71.76;101506.84;5118011;28;20047;-80
2022/10/25 10:33:28;;;;;;;28.23;19.73;;;;;;;21.42;72.16;101506.00;5119101;28;20054;-82
2022/10/25 10:36:15;;;;;;;;;;;;;;;21.42;72.04;101497.91;5119623;28;20051;-83
2022/10/25 10:38:43;;;;;;;26.80;19.85;;;;;;;21.42;71.75;101497.06;5100028;28;20263;-80
2022/10/25 10:41:13;;;;;;;28.05;19.70;;;;;;;21.41;71.81;101492.66;5117618;28;20491;-83
2022/10/25 10:43:40;;;;;;;24.98;19.85;;;;;;;21.42;71.89;101488.97;5118927;28;20044;-84
2022/10/25 10:46:16;;;;;;;28.10;20.55;;;;;;;21.40;72.20;101483.72;5099935;28;20070;-80
2022/10/25 10:49:17;;;;;;;22.73;19.10;;;;;;;21.41;72.67;101484.59;5118597;28;20040;-87
2022/10/25 10:51:45;;;;;;;25.77;18.63;;;;;;;21.40;72.55;101482.88;5101516;28;20047;-91
2022/10/25 10:54:25;;;;;;;20.90;17.58;;;;;;;21.39;72.55;101481.16;5100357;28;20047;-95
2022/10/25 10:56:55;;;;;;;25.17;19.23;;;;;;;21.41;72.71;101479.19;5118231;28;20046;-85
2022/10/25 10:59:31;;;;;;;23.10;17.83;;;;;;;21.39;72.76;101478.47;5118252;28;20052;-83
2022/10/25 11:02:15;;;;;;;23.15;19.15;;;;;;;21.41;72.90;101477.34;5119634;28;20055;-85
2022/10/25 11:04:48;;;;;;;24.60;18.58;;;;;;;21.41;72.52;101476.50;5117082;28;20050;-79
2022/10/25 11:07:34;;;;;;;23.55;18.55;;;;;;;21.41;72.68;101471.97;5097835;28;20050;-83
2022/10/25 11:10:14;;;;;;;26.50;19.08;;;;;;;21.40;72.81;101472.13;5118374;28;20115;-83
2022/10/25 11:12:42;;;;;;;25.55;18.83;;;;;;;21.42;72.96;101470.13;5118135;28;20052;-81
2022/10/25 11:15:14;;;;;;;20.80;16.75;;;;;;;21.41;72.98;101471.13;5117761;28;20052;-85
2022/10/25 11:17:57;;;;;;;19.77;16.52;;;;;;;21.41;73.39;101465.72;5117538;28;20035;-83
2022/10/25 11:20:29;;;;;;;22.65;17.45;;;;;;;21.41;73.73;101469.28;5115347;28;20055;-82
2022/10/25 11:23:35;;;;;;;20.42;16.20;;;;;;;21.41;73.69;101461.19;5118029;28;20396;-80
2022/10/25 11:26:27;;;;;;;21.83;16.83;;;;;;;21.40;73.84;101464.88;5117866;28;20054;-83
2022/10/25 11:29:40;;;;;;;21.83;17.35;;;;;;;21.42;73.69;101464.75;5117324;28;20042;-87
2022/10/25 11:32:43;;;;;;;21.80;15.93;;;;;;;21.43;73.94;101461.06;5108162;28;20060;-82
2022/10/25 11:35:53;;;;;;;23.05;15.55;;;;;;;21.43;73.52;101461.06;5117352;28;20044;-82
2022/10/25 11:38:54;;;;;;;19.75;16.08;;;;;;;21.42;74.03;101445.88;5117269;28;20039;-80
2022/10/25 11:41:44;;;;;;;17.60;14.90;;;;;;;21.42;74.03;101448.56;5118022;28;20054;-82
2022/10/25 11:44:40;;;;;;;21.05;16.00;;;;;;;21.42;74.04;101445.88;5117468;28;20048;-89
2022/10/25 11:47:23;;;;;;;20.52;15.93;;;;;;;21.42;73.89;101440.50;5115778;28;20074;-88